メインページ
METAR-TAF:

METAR-TAF

空港 :

ボストン, マサチューセッツ州, アメリカ合衆国

ジェネラル・エドワード・ローレンス・ローガン国際空港

緯度: 42-21-38N, 経度: 071-00-38W, 海抜: 6m

現時点の気象観測

当レポートは9分前の16:27(UTC)に作成
東/南東の風 6kt
気温 11°C
湿度 100%
気圧 1011 hPa
視程: 4.8km
高度7500ftの千切れ雲あり
高度9000ftの曇り
小雨, 靄

METAR: KBOS 221627Z 11006KT 3SM R04R/1600V2000FT -RA BR BKN075 OVC090 11/11 A2985 RMK AO2 VIS 1/2 E P0003 T01110111 $

時間: 11:36 (16:36 UTC)

予報

当レポートは1時間31分前の15:05(UTC)に作成
予報は22日の 15時(UTC)から 23日の 18時(UTC)まで有効
の風 4kt
視程: 3.2km
高度5000ftの曇り
雨, 靄
22日の 1700時(UTC)から
の風 5kt
視程: 3.2km
高度2500ftの曇り
雨, 靄
22日の 2300時(UTC)から
北西の風 13kt、最大25ktの突風を伴う
視程: 10km
高度4000ftの雲は散在している
23日の 0900時(UTC)から
北西の風 10kt、最大20ktの突風を伴う
視程: 10km
晴天
23日の 1600時(UTC)から
西/北西の風 10kt
視程: 10km
晴天

TAF: KBOS 221505Z 2215/2318 08004KT 2SM RA BR OVC050 FM221700 10005KT 2SM RA BR OVC025 FM222300 32013G25KT P6SM SCT040 FM230900 31010G20KT P6SM SKC FM231600 29010KT P6SM SKC

4,000以上の空港の気象観測と天気予報(METAR報とTAF報)

利用可能な観測所は地図上に黄色い丸と赤い丸で示す。

丸の上にカーソルを重ねると観測所名を参照できる。

次にクリックすると気象観測と天気予報を参照できる。

マップの切り替え:黒色「×」印の緑ボタンをクリックして拡大、「-」印の緑ボタンをクリックして縮小、緑色の三角印をクリックして隣りの地図に切り替え


METAR-TAF: